N159PG CYWG-KGFK
Flight info
| Callsign | N159PG |
|---|---|
| Flight time | 1h 0m |
| Altitude | 3500 |
| Route | DCT KGFK |
| Aircraft | C172/L-SDGLR/S |
Departure
| Time | 2026-05-07 01:11 |
|---|---|
| Airport | Winnipeg / James Armstrong Richardson International Airport (CYWG) |
Arrival
| Time | 2026-05-07 02:12 |
|---|---|
| Airport | Grand Forks International Airport (KGFK) |
| Time | Latitude | Longitude | Altitude | Speed | Heading |
|---|---|---|---|---|---|
| 2026-05-07 00:34 | 49.90394 | -97.23044 | 778 ft | 0 kts | 103° |
| 2026-05-07 00:35 | 49.90394 | -97.23045 | 778 ft | 0 kts | 103° |
| 2026-05-07 00:38 | 49.90394 | -97.23046 | 778 ft | 0 kts | 103° |
| 2026-05-07 00:40 | 49.90395 | -97.23046 | 778 ft | 0 kts | 103° |
| 2026-05-07 00:42 | 49.90395 | -97.23047 | 778 ft | 0 kts | 103° |
| 2026-05-07 00:45 | 49.90395 | -97.23048 | 778 ft | 0 kts | 103° |
| 2026-05-07 00:49 | 49.90395 | -97.23049 | 778 ft | 0 kts | 103° |
| 2026-05-07 00:52 | 49.90395 | -97.23050 | 778 ft | 0 kts | 103° |
| 2026-05-07 00:56 | 49.90395 | -97.23051 | 778 ft | 0 kts | 102° |
| 2026-05-07 00:59 | 49.90395 | -97.23052 | 778 ft | 0 kts | 102° |
| 2026-05-07 01:02 | 49.90395 | -97.23048 | 778 ft | 2 kts | 102° |
| 2026-05-07 01:02 | 49.90363 | -97.23017 | 779 ft | 7 kts | 175° |
| 2026-05-07 01:02 | 49.90305 | -97.23030 | 779 ft | 13 kts | 187° |
| 2026-05-07 01:03 | 49.90228 | -97.23025 | 779 ft | 10 kts | 161° |
| 2026-05-07 01:03 | 49.90182 | -97.23070 | 780 ft | 8 kts | 253° |
| 2026-05-07 01:03 | 49.90166 | -97.23155 | 781 ft | 10 kts | 239° |
| 2026-05-07 01:03 | 49.90107 | -97.23176 | 781 ft | 11 kts | 146° |
| 2026-05-07 01:04 | 49.90049 | -97.23096 | 780 ft | 11 kts | 138° |
| 2026-05-07 01:04 | 49.89964 | -97.22980 | 776 ft | 20 kts | 138° |
| 2026-05-07 01:04 | 49.89883 | -97.22868 | 776 ft | 15 kts | 129° |
| 2026-05-07 01:04 | 49.89823 | -97.22751 | 775 ft | 13 kts | 129° |
| 2026-05-07 01:05 | 49.89770 | -97.22651 | 777 ft | 13 kts | 128° |
| 2026-05-07 01:05 | 49.89695 | -97.22529 | 777 ft | 15 kts | 168° |
| 2026-05-07 01:05 | 49.89622 | -97.22630 | 774 ft | 15 kts | 230° |
| 2026-05-07 01:05 | 49.89558 | -97.22744 | 774 ft | 14 kts | 228° |
| 2026-05-07 01:06 | 49.89480 | -97.22890 | 770 ft | 17 kts | 251° |
| 2026-05-07 01:06 | 49.89492 | -97.23053 | 771 ft | 14 kts | 276° |
| 2026-05-07 01:06 | 49.89503 | -97.23201 | 771 ft | 13 kts | 277° |
| 2026-05-07 01:06 | 49.89515 | -97.23357 | 772 ft | 17 kts | 276° |
| 2026-05-07 01:07 | 49.89528 | -97.23531 | 776 ft | 15 kts | 277° |
| 2026-05-07 01:07 | 49.89539 | -97.23684 | 779 ft | 16 kts | 275° |
| 2026-05-07 01:07 | 49.89554 | -97.23870 | 784 ft | 16 kts | 277° |
| 2026-05-07 01:07 | 49.89567 | -97.24026 | 785 ft | 8 kts | 275° |
| 2026-05-07 01:08 | 49.89567 | -97.24031 | 785 ft | 0 kts | 275° |
| 2026-05-07 01:09 | 49.89567 | -97.24030 | 785 ft | 0 kts | 275° |
| 2026-05-07 01:10 | 49.89567 | -97.24031 | 785 ft | 1 kts | 275° |
| 2026-05-07 01:10 | 49.89575 | -97.24122 | 786 ft | 15 kts | 282° |
| 2026-05-07 01:10 | 49.89650 | -97.24157 | 786 ft | 24 kts | 8° |
| 2026-05-07 01:10 | 49.90000 | -97.24079 | 791 ft | 72 kts | 14° |
| 2026-05-07 01:11 | 49.90532 | -97.23961 | 999 ft | 78 kts | 13° |
| 2026-05-07 01:11 | 49.91059 | -97.23847 | 1276 ft | 75 kts | 13° |
| 2026-05-07 01:11 | 49.91583 | -97.23744 | 1555 ft | 77 kts | 359° |
| 2026-05-07 01:11 | 49.92000 | -97.24242 | 1838 ft | 85 kts | 295° |
| 2026-05-07 01:12 | 49.91916 | -97.25219 | 2000 ft | 101 kts | 241° |
| 2026-05-07 01:12 | 49.91410 | -97.25977 | 2222 ft | 104 kts | 224° |
| 2026-05-07 01:12 | 49.90798 | -97.26611 | 2315 ft | 112 kts | 206° |
| 2026-05-07 01:12 | 49.90055 | -97.27032 | 2314 ft | 117 kts | 202° |
| 2026-05-07 01:13 | 49.89264 | -97.27376 | 2295 ft | 117 kts | 191° |
| 2026-05-07 01:13 | 49.88452 | -97.27429 | 2282 ft | 116 kts | 178° |
| 2026-05-07 01:13 | 49.87663 | -97.27323 | 2441 ft | 112 kts | 175° |
| 2026-05-07 01:13 | 49.86896 | -97.27128 | 2648 ft | 113 kts | 168° |
| 2026-05-07 01:14 | 49.86096 | -97.26856 | 2744 ft | 120 kts | 169° |
| 2026-05-07 01:14 | 49.85324 | -97.26864 | 3072 ft | 107 kts | 187° |
| 2026-05-07 01:14 | 49.84580 | -97.26853 | 3271 ft | 109 kts | 183° |
| 2026-05-07 01:14 | 49.83823 | -97.26832 | 3476 ft | 109 kts | 182° |
| 2026-05-07 01:15 | 49.83013 | -97.26808 | 3502 ft | 120 kts | 182° |
| 2026-05-07 01:15 | 49.82180 | -97.26768 | 3499 ft | 119 kts | 182° |
| 2026-05-07 01:15 | 49.81354 | -97.26727 | 3499 ft | 119 kts | 182° |
| 2026-05-07 01:15 | 49.80534 | -97.26684 | 3497 ft | 118 kts | 181° |
| 2026-05-07 01:16 | 49.79713 | -97.26643 | 3498 ft | 118 kts | 182° |
| 2026-05-07 01:16 | 49.78894 | -97.26600 | 3497 ft | 118 kts | 182° |
| 2026-05-07 01:16 | 49.78074 | -97.26558 | 3497 ft | 117 kts | 181° |
| 2026-05-07 01:16 | 49.77259 | -97.26515 | 3497 ft | 118 kts | 182° |
| 2026-05-07 01:17 | 49.76439 | -97.26472 | 3504 ft | 118 kts | 181° |
| 2026-05-07 01:17 | 49.75620 | -97.26430 | 3505 ft | 117 kts | 182° |
| 2026-05-07 01:17 | 49.74802 | -97.26387 | 3502 ft | 118 kts | 181° |
| 2026-05-07 01:17 | 49.73991 | -97.26347 | 3503 ft | 118 kts | 180° |
| 2026-05-07 01:18 | 49.73177 | -97.26305 | 3504 ft | 116 kts | 180° |
| 2026-05-07 01:18 | 49.72369 | -97.26262 | 3502 ft | 117 kts | 180° |
| 2026-05-07 01:18 | 49.71548 | -97.26220 | 3511 ft | 119 kts | 180° |
| 2026-05-07 01:18 | 49.70715 | -97.26175 | 3514 ft | 120 kts | 180° |
| 2026-05-07 01:19 | 49.69872 | -97.26132 | 3513 ft | 122 kts | 180° |
| 2026-05-07 01:19 | 49.69021 | -97.26089 | 3516 ft | 123 kts | 180° |
| 2026-05-07 01:19 | 49.68164 | -97.26045 | 3513 ft | 124 kts | 180° |
| 2026-05-07 01:19 | 49.67304 | -97.26000 | 3518 ft | 124 kts | 180° |
| 2026-05-07 01:20 | 49.66444 | -97.25957 | 3511 ft | 124 kts | 179° |
| 2026-05-07 01:20 | 49.65582 | -97.25912 | 3516 ft | 124 kts | 180° |
| 2026-05-07 01:20 | 49.64723 | -97.25868 | 3516 ft | 125 kts | 180° |
| 2026-05-07 01:20 | 49.63851 | -97.25823 | 3517 ft | 125 kts | 180° |
| 2026-05-07 01:21 | 49.62997 | -97.25779 | 3512 ft | 121 kts | 180° |
| 2026-05-07 01:21 | 49.62157 | -97.25735 | 3513 ft | 121 kts | 180° |
| 2026-05-07 01:21 | 49.61320 | -97.25691 | 3512 ft | 120 kts | 180° |
| 2026-05-07 01:21 | 49.60485 | -97.25648 | 3509 ft | 120 kts | 180° |
| 2026-05-07 01:22 | 49.59648 | -97.25606 | 3510 ft | 121 kts | 180° |
| 2026-05-07 01:22 | 49.58806 | -97.25563 | 3511 ft | 121 kts | 180° |
| 2026-05-07 01:22 | 49.57965 | -97.25520 | 3514 ft | 121 kts | 180° |
| 2026-05-07 01:22 | 49.57122 | -97.25477 | 3513 ft | 122 kts | 180° |
| 2026-05-07 01:23 | 49.56279 | -97.25433 | 3514 ft | 121 kts | 180° |
| 2026-05-07 01:23 | 49.55437 | -97.25389 | 3517 ft | 120 kts | 180° |
| 2026-05-07 01:23 | 49.54597 | -97.25345 | 3520 ft | 121 kts | 180° |
| 2026-05-07 01:23 | 49.53753 | -97.25302 | 3516 ft | 122 kts | 180° |
| 2026-05-07 01:24 | 49.52905 | -97.25259 | 3515 ft | 121 kts | 180° |
| 2026-05-07 01:24 | 49.52061 | -97.25215 | 3512 ft | 121 kts | 180° |
| 2026-05-07 01:24 | 49.51217 | -97.25172 | 3517 ft | 120 kts | 180° |
| 2026-05-07 01:24 | 49.50389 | -97.25131 | 3521 ft | 120 kts | 180° |
| 2026-05-07 01:25 | 49.49551 | -97.25087 | 3514 ft | 120 kts | 180° |
| 2026-05-07 01:25 | 49.48716 | -97.25044 | 3516 ft | 120 kts | 180° |
| 2026-05-07 01:25 | 49.47881 | -97.25001 | 3516 ft | 120 kts | 180° |
| 2026-05-07 01:25 | 49.47047 | -97.24959 | 3516 ft | 119 kts | 180° |
| 2026-05-07 01:26 | 49.46215 | -97.24915 | 3514 ft | 120 kts | 179° |
| 2026-05-07 01:26 | 49.45383 | -97.24873 | 3513 ft | 119 kts | 180° |
| 2026-05-07 01:26 | 49.44551 | -97.24831 | 3521 ft | 120 kts | 180° |
| 2026-05-07 01:26 | 49.43716 | -97.24788 | 3524 ft | 120 kts | 180° |
| 2026-05-07 01:27 | 49.42879 | -97.24745 | 3514 ft | 120 kts | 180° |
| 2026-05-07 01:27 | 49.42050 | -97.24703 | 3513 ft | 119 kts | 180° |
| 2026-05-07 01:27 | 49.41216 | -97.24660 | 3512 ft | 120 kts | 179° |
| 2026-05-07 01:27 | 49.40386 | -97.24617 | 3515 ft | 119 kts | 180° |
| 2026-05-07 01:28 | 49.39568 | -97.24576 | 3511 ft | 120 kts | 180° |
| 2026-05-07 01:28 | 49.38736 | -97.24533 | 3510 ft | 120 kts | 180° |
| 2026-05-07 01:28 | 49.37902 | -97.24491 | 3513 ft | 120 kts | 180° |
| 2026-05-07 01:28 | 49.37065 | -97.24448 | 3523 ft | 121 kts | 180° |
| 2026-05-07 01:29 | 49.36225 | -97.24404 | 3515 ft | 121 kts | 180° |
| 2026-05-07 01:29 | 49.35384 | -97.24363 | 3514 ft | 121 kts | 180° |
| 2026-05-07 01:29 | 49.34548 | -97.24321 | 3527 ft | 120 kts | 180° |
| 2026-05-07 01:29 | 49.33712 | -97.24277 | 3514 ft | 120 kts | 180° |
| 2026-05-07 01:30 | 49.32893 | -97.24235 | 3512 ft | 118 kts | 180° |
| 2026-05-07 01:30 | 49.32072 | -97.24193 | 3513 ft | 118 kts | 180° |
| 2026-05-07 01:30 | 49.31249 | -97.24151 | 3511 ft | 118 kts | 180° |
| 2026-05-07 01:30 | 49.30423 | -97.24109 | 3512 ft | 120 kts | 179° |
| 2026-05-07 01:31 | 49.29594 | -97.24068 | 3510 ft | 119 kts | 180° |
| 2026-05-07 01:31 | 49.28763 | -97.24025 | 3512 ft | 120 kts | 181° |
| 2026-05-07 01:31 | 49.27925 | -97.23982 | 3516 ft | 121 kts | 180° |
| 2026-05-07 01:31 | 49.27086 | -97.23939 | 3517 ft | 121 kts | 180° |
| 2026-05-07 01:32 | 49.26248 | -97.23897 | 3513 ft | 120 kts | 180° |
| 2026-05-07 01:32 | 49.25412 | -97.23855 | 3513 ft | 119 kts | 180° |
| 2026-05-07 01:32 | 49.24585 | -97.23813 | 3514 ft | 119 kts | 180° |
| 2026-05-07 01:32 | 49.23755 | -97.23770 | 3516 ft | 119 kts | 180° |
| 2026-05-07 01:33 | 49.22923 | -97.23728 | 3512 ft | 120 kts | 181° |
| 2026-05-07 01:33 | 49.22090 | -97.23686 | 3526 ft | 120 kts | 180° |
| 2026-05-07 01:33 | 49.21256 | -97.23643 | 3514 ft | 120 kts | 181° |
| 2026-05-07 01:33 | 49.20417 | -97.23601 | 3515 ft | 121 kts | 180° |
| 2026-05-07 01:34 | 49.19575 | -97.23559 | 3514 ft | 120 kts | 180° |
| 2026-05-07 01:34 | 49.18741 | -97.23516 | 3514 ft | 120 kts | 180° |
| 2026-05-07 01:34 | 49.17910 | -97.23474 | 3510 ft | 120 kts | 180° |
| 2026-05-07 01:34 | 49.17091 | -97.23433 | 3513 ft | 119 kts | 180° |
| 2026-05-07 01:35 | 49.16266 | -97.23392 | 3514 ft | 119 kts | 181° |
| 2026-05-07 01:35 | 49.15437 | -97.23350 | 3516 ft | 120 kts | 181° |
| 2026-05-07 01:35 | 49.14603 | -97.23308 | 3516 ft | 120 kts | 181° |
| 2026-05-07 01:35 | 49.13768 | -97.23265 | 3515 ft | 121 kts | 181° |
| 2026-05-07 01:36 | 49.12929 | -97.23223 | 3514 ft | 120 kts | 180° |
| 2026-05-07 01:36 | 49.12090 | -97.23181 | 3513 ft | 121 kts | 180° |
| 2026-05-07 01:36 | 49.11252 | -97.23139 | 3516 ft | 120 kts | 180° |
| 2026-05-07 01:36 | 49.10412 | -97.23096 | 3512 ft | 121 kts | 180° |
| 2026-05-07 01:37 | 49.09570 | -97.23054 | 3513 ft | 121 kts | 180° |
| 2026-05-07 01:37 | 49.08746 | -97.23012 | 3513 ft | 119 kts | 180° |
| 2026-05-07 01:37 | 49.07917 | -97.22969 | 3513 ft | 119 kts | 181° |
| 2026-05-07 01:37 | 49.07089 | -97.22927 | 3515 ft | 119 kts | 181° |
| 2026-05-07 01:38 | 49.06262 | -97.22886 | 3513 ft | 118 kts | 180° |
| 2026-05-07 01:38 | 49.05435 | -97.22844 | 3514 ft | 119 kts | 181° |
| 2026-05-07 01:38 | 49.04609 | -97.22802 | 3510 ft | 119 kts | 181° |
| 2026-05-07 01:38 | 49.03781 | -97.22760 | 3511 ft | 119 kts | 181° |
| 2026-05-07 01:39 | 49.02952 | -97.22719 | 3506 ft | 120 kts | 181° |
| 2026-05-07 01:39 | 49.02122 | -97.22678 | 3510 ft | 119 kts | 181° |
| 2026-05-07 01:39 | 49.01291 | -97.22636 | 3508 ft | 120 kts | 181° |
| 2026-05-07 01:39 | 49.00460 | -97.22594 | 3508 ft | 120 kts | 180° |
| 2026-05-07 01:40 | 48.99637 | -97.22552 | 3504 ft | 120 kts | 181° |
| 2026-05-07 01:40 | 48.98803 | -97.22511 | 3504 ft | 119 kts | 180° |
| 2026-05-07 01:40 | 48.97972 | -97.22469 | 3500 ft | 119 kts | 181° |
| 2026-05-07 01:40 | 48.97143 | -97.22427 | 3499 ft | 120 kts | 182° |
| 2026-05-07 01:41 | 48.96309 | -97.22385 | 3502 ft | 120 kts | 181° |
| 2026-05-07 01:41 | 48.95479 | -97.22343 | 3503 ft | 119 kts | 181° |
| 2026-05-07 01:41 | 48.94645 | -97.22302 | 3500 ft | 120 kts | 181° |
| 2026-05-07 01:41 | 48.93811 | -97.22261 | 3501 ft | 120 kts | 180° |
| 2026-05-07 01:42 | 48.92978 | -97.22218 | 3505 ft | 120 kts | 180° |
| 2026-05-07 01:42 | 48.92143 | -97.22176 | 3498 ft | 119 kts | 180° |
| 2026-05-07 01:42 | 48.91594 | -97.22149 | 3497 ft | 119 kts | 182° |
| 2026-05-07 01:42 | 48.90500 | -97.22094 | 3495 ft | 119 kts | 182° |
| 2026-05-07 01:43 | 48.89672 | -97.22052 | 3491 ft | 119 kts | 181° |
| 2026-05-07 01:43 | 48.88847 | -97.22011 | 3498 ft | 119 kts | 181° |
| 2026-05-07 01:43 | 48.88020 | -97.21970 | 3494 ft | 119 kts | 181° |
| 2026-05-07 01:43 | 48.87194 | -97.21929 | 3491 ft | 119 kts | 181° |
| 2026-05-07 01:44 | 48.86644 | -97.21902 | 3493 ft | 119 kts | 180° |
| 2026-05-07 01:44 | 48.85814 | -97.21860 | 3501 ft | 119 kts | 180° |
| 2026-05-07 01:44 | 48.84983 | -97.21819 | 3485 ft | 119 kts | 181° |
| 2026-05-07 01:44 | 48.84155 | -97.21777 | 3489 ft | 119 kts | 181° |
| 2026-05-07 01:45 | 48.83325 | -97.21736 | 3486 ft | 119 kts | 181° |
| 2026-05-07 01:45 | 48.82497 | -97.21695 | 3489 ft | 119 kts | 181° |
| 2026-05-07 01:45 | 48.81664 | -97.21653 | 3485 ft | 120 kts | 181° |
| 2026-05-07 01:45 | 48.80831 | -97.21612 | 3486 ft | 119 kts | 181° |
| 2026-05-07 01:46 | 48.80002 | -97.21569 | 3487 ft | 119 kts | 181° |
| 2026-05-07 01:46 | 48.79172 | -97.21528 | 3489 ft | 119 kts | 182° |
| 2026-05-07 01:46 | 48.78344 | -97.21487 | 3486 ft | 119 kts | 181° |
| 2026-05-07 01:46 | 48.77519 | -97.21446 | 3484 ft | 118 kts | 181° |
| 2026-05-07 01:47 | 48.76695 | -97.21405 | 3490 ft | 118 kts | 181° |
| 2026-05-07 01:47 | 48.75884 | -97.21365 | 3485 ft | 119 kts | 181° |
| 2026-05-07 01:47 | 48.75058 | -97.21323 | 3486 ft | 119 kts | 181° |
| 2026-05-07 01:47 | 48.74231 | -97.21282 | 3484 ft | 119 kts | 181° |
| 2026-05-07 01:48 | 48.73403 | -97.21241 | 3485 ft | 119 kts | 181° |
| 2026-05-07 01:48 | 48.72572 | -97.21200 | 3492 ft | 119 kts | 181° |
| 2026-05-07 01:48 | 48.71743 | -97.21159 | 3497 ft | 118 kts | 181° |
| 2026-05-07 01:48 | 48.70916 | -97.21117 | 3494 ft | 119 kts | 182° |
| 2026-05-07 01:49 | 48.70094 | -97.21076 | 3497 ft | 118 kts | 181° |
| 2026-05-07 01:49 | 48.69275 | -97.21035 | 3495 ft | 118 kts | 181° |
| 2026-05-07 01:49 | 48.68453 | -97.20995 | 3497 ft | 118 kts | 181° |
| 2026-05-07 01:49 | 48.67627 | -97.20955 | 3498 ft | 119 kts | 181° |
| 2026-05-07 01:50 | 48.66802 | -97.20913 | 3506 ft | 119 kts | 181° |
| 2026-05-07 01:50 | 48.65986 | -97.20873 | 3499 ft | 119 kts | 181° |
| 2026-05-07 01:50 | 48.65156 | -97.20832 | 3501 ft | 120 kts | 181° |
| 2026-05-07 01:50 | 48.64325 | -97.20790 | 3500 ft | 119 kts | 181° |
| 2026-05-07 01:51 | 48.63500 | -97.20750 | 3501 ft | 118 kts | 181° |
| 2026-05-07 01:51 | 48.62675 | -97.20709 | 3500 ft | 118 kts | 181° |
| 2026-05-07 01:51 | 48.61853 | -97.20667 | 3501 ft | 118 kts | 181° |
| 2026-05-07 01:51 | 48.61036 | -97.20627 | 3501 ft | 117 kts | 181° |
| 2026-05-07 01:52 | 48.60220 | -97.20586 | 3503 ft | 118 kts | 182° |
| 2026-05-07 01:52 | 48.59400 | -97.20546 | 3505 ft | 117 kts | 181° |
| 2026-05-07 01:52 | 48.58580 | -97.20505 | 3511 ft | 118 kts | 182° |
| 2026-05-07 01:52 | 48.57754 | -97.20464 | 3506 ft | 119 kts | 182° |
| 2026-05-07 01:53 | 48.56928 | -97.20424 | 3509 ft | 119 kts | 182° |
| 2026-05-07 01:53 | 48.56099 | -97.20383 | 3510 ft | 119 kts | 181° |
| 2026-05-07 01:53 | 48.55284 | -97.20343 | 3512 ft | 119 kts | 181° |
| 2026-05-07 01:53 | 48.54456 | -97.20302 | 3511 ft | 119 kts | 181° |
| 2026-05-07 01:54 | 48.53632 | -97.20261 | 3512 ft | 118 kts | 181° |
| 2026-05-07 01:54 | 48.52810 | -97.20221 | 3514 ft | 118 kts | 181° |
| 2026-05-07 01:54 | 48.51991 | -97.20243 | 3509 ft | 117 kts | 191° |
| 2026-05-07 01:54 | 48.51209 | -97.20324 | 3631 ft | 108 kts | 183° |
| 2026-05-07 01:55 | 48.50415 | -97.20340 | 3536 ft | 119 kts | 187° |
| 2026-05-07 01:55 | 48.49583 | -97.20402 | 3514 ft | 119 kts | 185° |
| 2026-05-07 01:55 | 48.48755 | -97.20409 | 3514 ft | 119 kts | 183° |
| 2026-05-07 01:55 | 48.47927 | -97.20384 | 3511 ft | 119 kts | 181° |
| 2026-05-07 01:56 | 48.47101 | -97.20346 | 3514 ft | 119 kts | 181° |
| 2026-05-07 01:56 | 48.46279 | -97.20303 | 3512 ft | 118 kts | 181° |
| 2026-05-07 01:56 | 48.45460 | -97.20258 | 3511 ft | 118 kts | 181° |
| 2026-05-07 01:56 | 48.44641 | -97.20212 | 3511 ft | 118 kts | 181° |
| 2026-05-07 01:57 | 48.43816 | -97.20164 | 3511 ft | 118 kts | 181° |
| 2026-05-07 01:57 | 48.42994 | -97.20124 | 3508 ft | 118 kts | 181° |
| 2026-05-07 01:57 | 48.42181 | -97.20077 | 3506 ft | 119 kts | 181° |
| 2026-05-07 01:57 | 48.41352 | -97.20026 | 3506 ft | 120 kts | 181° |
| 2026-05-07 01:58 | 48.40520 | -97.19972 | 3507 ft | 120 kts | 182° |
| 2026-05-07 01:58 | 48.39759 | -97.19526 | 3499 ft | 122 kts | 134° |
| 2026-05-07 01:58 | 48.39081 | -97.18795 | 3505 ft | 120 kts | 159° |
| 2026-05-07 01:58 | 48.38287 | -97.18779 | 3503 ft | 115 kts | 216° |
| 2026-05-07 01:59 | 48.37584 | -97.19325 | 3534 ft | 114 kts | 207° |
| 2026-05-07 01:59 | 48.36817 | -97.19716 | 3507 ft | 118 kts | 195° |
| 2026-05-07 01:59 | 48.35989 | -97.19723 | 3508 ft | 119 kts | 181° |
| 2026-05-07 01:59 | 48.35159 | -97.19680 | 3508 ft | 119 kts | 181° |
| 2026-05-07 02:00 | 48.34332 | -97.19635 | 3513 ft | 119 kts | 180° |
| 2026-05-07 02:00 | 48.33509 | -97.19589 | 3504 ft | 119 kts | 181° |
| 2026-05-07 02:00 | 48.32694 | -97.19537 | 3506 ft | 119 kts | 181° |
| 2026-05-07 02:00 | 48.31870 | -97.19486 | 3506 ft | 118 kts | 181° |
| 2026-05-07 02:01 | 48.31045 | -97.19438 | 3510 ft | 119 kts | 181° |
| 2026-05-07 02:01 | 48.30215 | -97.19391 | 3510 ft | 119 kts | 181° |
| 2026-05-07 02:01 | 48.29384 | -97.19343 | 3512 ft | 119 kts | 181° |
| 2026-05-07 02:01 | 48.28554 | -97.19296 | 3511 ft | 119 kts | 181° |
| 2026-05-07 02:02 | 48.27722 | -97.19248 | 3512 ft | 120 kts | 181° |
| 2026-05-07 02:02 | 48.26890 | -97.19201 | 3512 ft | 120 kts | 181° |
| 2026-05-07 02:02 | 48.26057 | -97.19153 | 3513 ft | 119 kts | 181° |
| 2026-05-07 02:02 | 48.25229 | -97.19107 | 3513 ft | 119 kts | 181° |
| 2026-05-07 02:03 | 48.24401 | -97.19060 | 3513 ft | 119 kts | 181° |
| 2026-05-07 02:03 | 48.23573 | -97.19014 | 3508 ft | 119 kts | 181° |
| 2026-05-07 02:03 | 48.22725 | -97.18967 | 3427 ft | 124 kts | 181° |
| 2026-05-07 02:03 | 48.21863 | -97.18919 | 3332 ft | 127 kts | 181° |
| 2026-05-07 02:04 | 48.20972 | -97.18869 | 3218 ft | 129 kts | 181° |
| 2026-05-07 02:04 | 48.20061 | -97.18817 | 3062 ft | 132 kts | 181° |
| 2026-05-07 02:04 | 48.19140 | -97.18766 | 2904 ft | 132 kts | 180° |
| 2026-05-07 02:04 | 48.18219 | -97.18714 | 2745 ft | 132 kts | 181° |
| 2026-05-07 02:05 | 48.17297 | -97.18662 | 2588 ft | 133 kts | 180° |
| 2026-05-07 02:05 | 48.16379 | -97.18609 | 2480 ft | 130 kts | 180° |
| 2026-05-07 02:05 | 48.15482 | -97.18557 | 2393 ft | 128 kts | 180° |
| 2026-05-07 02:05 | 48.14598 | -97.18507 | 2309 ft | 127 kts | 180° |
| 2026-05-07 02:06 | 48.13717 | -97.18457 | 2234 ft | 127 kts | 180° |
| 2026-05-07 02:06 | 48.12832 | -97.18408 | 2141 ft | 128 kts | 180° |
| 2026-05-07 02:06 | 48.11935 | -97.18358 | 2039 ft | 129 kts | 180° |
| 2026-05-07 02:06 | 48.11036 | -97.18307 | 1934 ft | 130 kts | 181° |
| 2026-05-07 02:07 | 48.10137 | -97.18255 | 1889 ft | 125 kts | 179° |
| 2026-05-07 02:07 | 48.08449 | -97.18158 | 1898 ft | 120 kts | 180° |
| 2026-05-07 02:07 | 48.07618 | -97.18111 | 1897 ft | 119 kts | 179° |
| 2026-05-07 02:08 | 48.06793 | -97.18084 | 1894 ft | 118 kts | 180° |
| 2026-05-07 02:08 | 48.05972 | -97.18069 | 1898 ft | 117 kts | 180° |
| 2026-05-07 02:08 | 48.05152 | -97.18035 | 1873 ft | 119 kts | 180° |
| 2026-05-07 02:08 | 48.04326 | -97.18062 | 1862 ft | 119 kts | 184° |
| 2026-05-07 02:09 | 48.03504 | -97.18122 | 1875 ft | 118 kts | 183° |
| 2026-05-07 02:09 | 48.02671 | -97.18122 | 1858 ft | 120 kts | 181° |
| 2026-05-07 02:09 | 48.01839 | -97.18091 | 1890 ft | 118 kts | 181° |
| 2026-05-07 02:09 | 48.01020 | -97.18096 | 1896 ft | 118 kts | 182° |
| 2026-05-07 02:10 | 48.00197 | -97.18105 | 1864 ft | 121 kts | 182° |
| 2026-05-07 02:10 | 47.99344 | -97.18116 | 1778 ft | 124 kts | 183° |
| 2026-05-07 02:10 | 47.98500 | -97.18123 | 1602 ft | 118 kts | 182° |
| 2026-05-07 02:10 | 47.97762 | -97.18131 | 1443 ft | 97 kts | 181° |
| 2026-05-07 02:11 | 47.97109 | -97.18119 | 1263 ft | 86 kts | 180° |
| 2026-05-07 02:11 | 47.96581 | -97.18130 | 1151 ft | 69 kts | 178° |
| 2026-05-07 02:11 | 47.96097 | -97.18125 | 977 ft | 70 kts | 178° |
| 2026-05-07 02:11 | 47.95628 | -97.18125 | 846 ft | 57 kts | 179° |
| 2026-05-07 02:12 | 47.95317 | -97.18125 | 841 ft | 38 kts | 181° |
| 2026-05-07 02:12 | 47.94961 | -97.18126 | 845 ft | 60 kts | 180° |
| 2026-05-07 02:12 | 47.94608 | -97.18124 | 844 ft | 43 kts | 181° |
| 2026-05-07 02:12 | 47.94477 | -97.18059 | 844 ft | 12 kts | 73° |
| 2026-05-07 02:13 | 47.94482 | -97.17920 | 845 ft | 14 kts | 90° |
| 2026-05-07 02:13 | 47.94486 | -97.17749 | 842 ft | 14 kts | 68° |
| 2026-05-07 02:13 | 47.94512 | -97.17733 | 844 ft | 0 kts | 306° |
| 2026-05-07 02:16 | 47.94512 | -97.17732 | 844 ft | 0 kts | 306° |